sensor_id;sensor_type;location;lat;lon;timestamp;temperature;humidity
66522;SHT31;53349;53.538;8.584;2022-09-02T00:01:33;15.42;63.64
66522;SHT31;53349;53.538;8.584;2022-09-02T00:04:06;15.36;63.94
66522;SHT31;53349;53.538;8.584;2022-09-02T00:06:32;15.33;64.16
66522;SHT31;53349;53.538;8.584;2022-09-02T00:08:59;15.37;64.12
66522;SHT31;53349;53.538;8.584;2022-09-02T00:11:29;15.39;64.19
66522;SHT31;53349;53.538;8.584;2022-09-02T00:13:55;15.39;64.14
66522;SHT31;53349;53.538;8.584;2022-09-02T00:16:21;15.33;64.31
66522;SHT31;53349;53.538;8.584;2022-09-02T00:18:48;15.32;64.47
66522;SHT31;53349;53.538;8.584;2022-09-02T00:21:15;15.25;64.62
66522;SHT31;53349;53.538;8.584;2022-09-02T00:23:41;15.29;64.67
66522;SHT31;53349;53.538;8.584;2022-09-02T00:26:07;15.20;64.87
66522;SHT31;53349;53.538;8.584;2022-09-02T00:28:33;15.18;64.93
66522;SHT31;53349;53.538;8.584;2022-09-02T00:30:58;15.16;65.05
66522;SHT31;53349;53.538;8.584;2022-09-02T00:33:24;15.13;65.15
66522;SHT31;53349;53.538;8.584;2022-09-02T00:35:49;15.09;65.33
66522;SHT31;53349;53.538;8.584;2022-09-02T00:38:15;15.08;65.37
66522;SHT31;53349;53.538;8.584;2022-09-02T00:40:48;15.12;65.39
66522;SHT31;53349;53.538;8.584;2022-09-02T00:43:44;15.03;65.61
66522;SHT31;53349;53.538;8.584;2022-09-02T00:46:12;14.98;65.79
66522;SHT31;53349;53.538;8.584;2022-09-02T00:48:42;14.99;65.84
66522;SHT31;53349;53.538;8.584;2022-09-02T00:51:09;15.00;65.75
66522;SHT31;53349;53.538;8.584;2022-09-02T00:53:37;14.95;65.96
66522;SHT31;53349;53.538;8.584;2022-09-02T00:56:05;14.93;65.99
66522;SHT31;53349;53.538;8.584;2022-09-02T00:58:33;14.96;66.01
66522;SHT31;53349;53.538;8.584;2022-09-02T01:00:59;14.95;66.06
66522;SHT31;53349;53.538;8.584;2022-09-02T01:03:27;14.96;65.96
66522;SHT31;53349;53.538;8.584;2022-09-02T01:05:53;14.95;66.07
66522;SHT31;53349;53.538;8.584;2022-09-02T01:08:26;14.93;66.16
66522;SHT31;53349;53.538;8.584;2022-09-02T01:10:53;14.93;66.12
66522;SHT31;53349;53.538;8.584;2022-09-02T01:13:23;14.89;66.20
66522;SHT31;53349;53.538;8.584;2022-09-02T01:16:16;14.89;66.15
66522;SHT31;53349;53.538;8.584;2022-09-02T01:18:46;14.88;66.33
66522;SHT31;53349;53.538;8.584;2022-09-02T01:21:13;14.82;66.41
66522;SHT31;53349;53.538;8.584;2022-09-02T01:23:38;14.86;66.31
66522;SHT31;53349;53.538;8.584;2022-09-02T01:26:04;14.82;66.41
66522;SHT31;53349;53.538;8.584;2022-09-02T01:28:29;14.86;66.29
66522;SHT31;53349;53.538;8.584;2022-09-02T01:30:58;14.81;66.40
66522;SHT31;53349;53.538;8.584;2022-09-02T01:33:23;14.79;66.49
66522;SHT31;53349;53.538;8.584;2022-09-02T01:35:50;14.77;66.62
66522;SHT31;53349;53.538;8.584;2022-09-02T01:38:16;14.71;66.73
66522;SHT31;53349;53.538;8.584;2022-09-02T01:40:42;14.71;66.70
66522;SHT31;53349;53.538;8.584;2022-09-02T01:43:10;14.68;66.82
66522;SHT31;53349;53.538;8.584;2022-09-02T01:45:38;14.65;66.85
66522;SHT31;53349;53.538;8.584;2022-09-02T01:48:05;14.65;66.83
66522;SHT31;53349;53.538;8.584;2022-09-02T01:50:31;14.64;66.94
66522;SHT31;53349;53.538;8.584;2022-09-02T01:52:58;14.61;66.90
66522;SHT31;53349;53.538;8.584;2022-09-02T01:55:26;14.63;66.92
66522;SHT31;53349;53.538;8.584;2022-09-02T01:57:51;14.57;66.90
66522;SHT31;53349;53.538;8.584;2022-09-02T02:00:16;14.52;67.23
66522;SHT31;53349;53.538;8.584;2022-09-02T02:02:42;14.48;67.34
66522;SHT31;53349;53.538;8.584;2022-09-02T02:05:07;14.44;67.45
66522;SHT31;53349;53.538;8.584;2022-09-02T02:07:33;14.48;67.40
66522;SHT31;53349;53.538;8.584;2022-09-02T02:09:59;14.48;67.42
66522;SHT31;53349;53.538;8.584;2022-09-02T02:12:25;14.47;67.44
66522;SHT31;53349;53.538;8.584;2022-09-02T02:14:50;14.38;67.65
66522;SHT31;53349;53.538;8.584;2022-09-02T02:17:15;14.31;67.87
66522;SHT31;53349;53.538;8.584;2022-09-02T02:19:41;14.38;67.70
66522;SHT31;53349;53.538;8.584;2022-09-02T02:22:09;14.41;67.62
66522;SHT31;53349;53.538;8.584;2022-09-02T02:24:35;14.37;67.75
66522;SHT31;53349;53.538;8.584;2022-09-02T02:27:01;14.34;67.82
66522;SHT31;53349;53.538;8.584;2022-09-02T02:29:27;14.33;67.80
66522;SHT31;53349;53.538;8.584;2022-09-02T02:31:52;14.36;67.88
66522;SHT31;53349;53.538;8.584;2022-09-02T02:34:18;14.31;67.84
66522;SHT31;53349;53.538;8.584;2022-09-02T02:36:44;14.28;67.98
66522;SHT31;53349;53.538;8.584;2022-09-02T02:39:10;14.23;68.15
66522;SHT31;53349;53.538;8.584;2022-09-02T02:41:37;14.21;68.25
66522;SHT31;53349;53.538;8.584;2022-09-02T02:44:03;14.18;68.39
66522;SHT31;53349;53.538;8.584;2022-09-02T02:46:29;14.16;68.42
66522;SHT31;53349;53.538;8.584;2022-09-02T02:48:57;14.09;68.59
66522;SHT31;53349;53.538;8.584;2022-09-02T02:51:23;13.99;69.05
66522;SHT31;53349;53.538;8.584;2022-09-02T02:53:49;13.97;68.95
66522;SHT31;53349;53.538;8.584;2022-09-02T02:56:14;13.93;69.23
66522;SHT31;53349;53.538;8.584;2022-09-02T02:58:40;13.89;69.22
66522;SHT31;53349;53.538;8.584;2022-09-02T03:01:05;13.82;69.69
66522;SHT31;53349;53.538;8.584;2022-09-02T03:03:32;13.79;69.74
66522;SHT31;53349;53.538;8.584;2022-09-02T03:05:57;13.80;69.79
66522;SHT31;53349;53.538;8.584;2022-09-02T03:08:23;13.77;69.88
66522;SHT31;53349;53.538;8.584;2022-09-02T03:10:51;13.82;69.78
66522;SHT31;53349;53.538;8.584;2022-09-02T03:13:18;13.83;69.67
66522;SHT31;53349;53.538;8.584;2022-09-02T03:15:46;13.79;69.74
66522;SHT31;53349;53.538;8.584;2022-09-02T03:18:12;13.72;70.08
66522;SHT31;53349;53.538;8.584;2022-09-02T03:20:39;13.72;70.18
66522;SHT31;53349;53.538;8.584;2022-09-02T03:23:05;13.70;70.12
66522;SHT31;53349;53.538;8.584;2022-09-02T03:25:32;13.65;70.23
66522;SHT31;53349;53.538;8.584;2022-09-02T03:27:59;13.61;70.36
66522;SHT31;53349;53.538;8.584;2022-09-02T03:30:27;13.59;70.48
66522;SHT31;53349;53.538;8.584;2022-09-02T03:32:54;13.61;70.40
66522;SHT31;53349;53.538;8.584;2022-09-02T03:35:21;13.61;70.56
66522;SHT31;53349;53.538;8.584;2022-09-02T03:37:47;13.58;70.52
66522;SHT31;53349;53.538;8.584;2022-09-02T03:40:19;13.51;70.71
66522;SHT31;53349;53.538;8.584;2022-09-02T03:42:45;13.49;70.67
66522;SHT31;53349;53.538;8.584;2022-09-02T03:45:11;13.48;70.83
66522;SHT31;53349;53.538;8.584;2022-09-02T03:47:39;13.48;70.76
66522;SHT31;53349;53.538;8.584;2022-09-02T03:50:18;13.52;70.54
66522;SHT31;53349;53.538;8.584;2022-09-02T03:52:44;13.48;70.66
66522;SHT31;53349;53.538;8.584;2022-09-02T03:55:10;13.48;70.68
66522;SHT31;53349;53.538;8.584;2022-09-02T03:57:35;13.41;70.86
66522;SHT31;53349;53.538;8.584;2022-09-02T04:00:05;13.38;70.97
66522;SHT31;53349;53.538;8.584;2022-09-02T04:02:32;13.38;70.96
66522;SHT31;53349;53.538;8.584;2022-09-02T04:04:58;13.32;71.14
66522;SHT31;53349;53.538;8.584;2022-09-02T04:07:23;13.36;71.13
66522;SHT31;53349;53.538;8.584;2022-09-02T04:09:50;13.35;71.07
66522;SHT31;53349;53.538;8.584;2022-09-02T04:12:15;13.32;71.23
66522;SHT31;53349;53.538;8.584;2022-09-02T04:14:40;13.32;71.14
66522;SHT31;53349;53.538;8.584;2022-09-02T04:17:06;13.31;71.27
66522;SHT31;53349;53.538;8.584;2022-09-02T04:19:33;13.27;71.45
66522;SHT31;53349;53.538;8.584;2022-09-02T04:21:59;13.29;71.42
66522;SHT31;53349;53.538;8.584;2022-09-02T04:24:24;13.29;71.26
66522;SHT31;53349;53.538;8.584;2022-09-02T04:26:49;13.24;71.44
66522;SHT31;53349;53.538;8.584;2022-09-02T04:29:16;13.28;71.34
66522;SHT31;53349;53.538;8.584;2022-09-02T04:31:42;13.29;71.38
66522;SHT31;53349;53.538;8.584;2022-09-02T04:34:07;13.27;71.35
66522;SHT31;53349;53.538;8.584;2022-09-02T04:36:32;13.24;71.55
66522;SHT31;53349;53.538;8.584;2022-09-02T04:38:58;13.25;71.44
66522;SHT31;53349;53.538;8.584;2022-09-02T04:41:26;13.25;71.42
66522;SHT31;53349;53.538;8.584;2022-09-02T04:43:54;13.25;71.38
66522;SHT31;53349;53.538;8.584;2022-09-02T04:46:20;13.12;71.73
66522;SHT31;53349;53.538;8.584;2022-09-02T04:48:46;13.04;72.00
66522;SHT31;53349;53.538;8.584;2022-09-02T04:51:14;13.04;72.19
66522;SHT31;53349;53.538;8.584;2022-09-02T04:53:41;13.08;72.03
66522;SHT31;53349;53.538;8.584;2022-09-02T04:56:15;13.03;72.25
66522;SHT31;53349;53.538;8.584;2022-09-02T04:58:41;13.00;72.31
66522;SHT31;53349;53.538;8.584;2022-09-02T05:01:13;13.04;72.15
66522;SHT31;53349;53.538;8.584;2022-09-02T05:03:40;13.03;72.12
66522;SHT31;53349;53.538;8.584;2022-09-02T05:06:08;12.98;72.27
66522;SHT31;53349;53.538;8.584;2022-09-02T05:08:34;13.05;72.15
66522;SHT31;53349;53.538;8.584;2022-09-02T05:11:10;13.08;72.05
66522;SHT31;53349;53.538;8.584;2022-09-02T05:13:37;13.11;71.83
66522;SHT31;53349;53.538;8.584;2022-09-02T05:16:05;13.17;71.80
66522;SHT31;53349;53.538;8.584;2022-09-02T05:18:32;13.10;71.85
66522;SHT31;53349;53.538;8.584;2022-09-02T05:20:57;13.10;71.94
66522;SHT31;53349;53.538;8.584;2022-09-02T05:23:23;13.10;71.89
66522;SHT31;53349;53.538;8.584;2022-09-02T05:25:49;13.07;71.97
66522;SHT31;53349;53.538;8.584;2022-09-02T05:28:15;13.07;71.97
66522;SHT31;53349;53.538;8.584;2022-09-02T05:30:42;13.12;71.89
66522;SHT31;53349;53.538;8.584;2022-09-02T05:33:08;13.12;71.69
66522;SHT31;53349;53.538;8.584;2022-09-02T05:35:39;13.14;71.67
66522;SHT31;53349;53.538;8.584;2022-09-02T05:38:04;13.17;71.57
66522;SHT31;53349;53.538;8.584;2022-09-02T05:40:30;13.17;71.47
66522;SHT31;53349;53.538;8.584;2022-09-02T05:42:55;13.17;71.54
66522;SHT31;53349;53.538;8.584;2022-09-02T05:45:21;13.18;71.54
66522;SHT31;53349;53.538;8.584;2022-09-02T05:47:48;13.22;71.42
66522;SHT31;53349;53.538;8.584;2022-09-02T05:50:14;13.27;71.38
66522;SHT31;53349;53.538;8.584;2022-09-02T05:52:40;13.24;71.43
66522;SHT31;53349;53.538;8.584;2022-09-02T05:55:06;13.25;71.49
66522;SHT31;53349;53.538;8.584;2022-09-02T05:57:31;13.29;71.36
66522;SHT31;53349;53.538;8.584;2022-09-02T05:59:57;13.32;71.25
66522;SHT31;53349;53.538;8.584;2022-09-02T06:02:23;13.35;71.32
66522;SHT31;53349;53.538;8.584;2022-09-02T06:04:51;13.41;71.19
66522;SHT31;53349;53.538;8.584;2022-09-02T06:07:19;13.52;70.98
66522;SHT31;53349;53.538;8.584;2022-09-02T06:09:45;13.65;70.70
66522;SHT31;53349;53.538;8.584;2022-09-02T06:12:11;13.82;70.19
66522;SHT31;53349;53.538;8.584;2022-09-02T06:14:37;14.07;69.51
66522;SHT31;53349;53.538;8.584;2022-09-02T06:17:03;14.26;68.90
66522;SHT31;53349;53.538;8.584;2022-09-02T06:19:30;14.57;68.17
66522;SHT31;53349;53.538;8.584;2022-09-02T06:21:57;14.79;67.43
66522;SHT31;53349;53.538;8.584;2022-09-02T06:24:23;15.09;66.67
66522;SHT31;53349;53.538;8.584;2022-09-02T06:26:49;15.32;66.01
66522;SHT31;53349;53.538;8.584;2022-09-02T06:29:15;15.68;65.18
66522;SHT31;53349;53.538;8.584;2022-09-02T06:31:44;15.93;64.36
66522;SHT31;53349;53.538;8.584;2022-09-02T06:34:10;16.21;63.71
66522;SHT31;53349;53.538;8.584;2022-09-02T06:36:38;16.33;63.10
66522;SHT31;53349;53.538;8.584;2022-09-02T06:39:04;16.60;62.54
66522;SHT31;53349;53.538;8.584;2022-09-02T06:41:32;16.94;61.79
66522;SHT31;53349;53.538;8.584;2022-09-02T06:44:01;17.20;61.19
66522;SHT31;53349;53.538;8.584;2022-09-02T06:46:32;17.18;60.81
66522;SHT31;53349;53.538;8.584;2022-09-02T06:48:58;17.35;60.60
66522;SHT31;53349;53.538;8.584;2022-09-02T06:51:30;17.42;60.40
66522;SHT31;53349;53.538;8.584;2022-09-02T06:53:57;17.44;60.46
66522;SHT31;53349;53.538;8.584;2022-09-02T06:56:23;17.52;60.49
66522;SHT31;53349;53.538;8.584;2022-09-02T06:58:49;17.51;60.38
66522;SHT31;53349;53.538;8.584;2022-09-02T07:01:18;17.59;60.12
66522;SHT31;53349;53.538;8.584;2022-09-02T07:03:44;17.57;60.36
66522;SHT31;53349;53.538;8.584;2022-09-02T07:06:32;17.64;60.22
66522;SHT31;53349;53.538;8.584;2022-09-02T07:09:00;17.72;60.19
66522;SHT31;53349;53.538;8.584;2022-09-02T07:11:26;17.76;59.91
66522;SHT31;53349;53.538;8.584;2022-09-02T07:13:53;17.75;60.20
66522;SHT31;53349;53.538;8.584;2022-09-02T07:16:18;17.71;60.39
66522;SHT31;53349;53.538;8.584;2022-09-02T07:18:44;17.62;60.58
66522;SHT31;53349;53.538;8.584;2022-09-02T07:21:10;17.69;60.51
66522;SHT31;53349;53.538;8.584;2022-09-02T07:23:36;17.82;60.32
66522;SHT31;53349;53.538;8.584;2022-09-02T07:26:01;17.83;60.24
66522;SHT31;53349;53.538;8.584;2022-09-02T07:28:27;17.83;59.95
66522;SHT31;53349;53.538;8.584;2022-09-02T07:30:52;17.86;59.98
66522;SHT31;53349;53.538;8.584;2022-09-02T07:33:20;17.83;59.98
66522;SHT31;53349;53.538;8.584;2022-09-02T07:35:45;17.76;60.18
66522;SHT31;53349;53.538;8.584;2022-09-02T07:38:11;17.72;60.43
66522;SHT31;53349;53.538;8.584;2022-09-02T07:40:38;17.65;60.56
66522;SHT31;53349;53.538;8.584;2022-09-02T07:43:06;17.58;60.71
66522;SHT31;53349;53.538;8.584;2022-09-02T07:45:33;17.61;60.55
66522;SHT31;53349;53.538;8.584;2022-09-02T07:48:00;17.67;60.27
66522;SHT31;53349;53.538;8.584;2022-09-02T07:50:26;17.69;60.26
66522;SHT31;53349;53.538;8.584;2022-09-02T07:52:56;17.64;60.16
66522;SHT31;53349;53.538;8.584;2022-09-02T07:55:23;17.61;60.45
66522;SHT31;53349;53.538;8.584;2022-09-02T07:57:50;17.64;60.53
66522;SHT31;53349;53.538;8.584;2022-09-02T08:00:16;17.65;60.32
66522;SHT31;53349;53.538;8.584;2022-09-02T08:02:44;17.72;60.27
66522;SHT31;53349;53.538;8.584;2022-09-02T08:05:10;17.79;60.03
66522;SHT31;53349;53.538;8.584;2022-09-02T08:07:36;17.89;59.88
66522;SHT31;53349;53.538;8.584;2022-09-02T08:10:02;17.88;59.43
66522;SHT31;53349;53.538;8.584;2022-09-02T08:12:28;17.96;59.40
66522;SHT31;53349;53.538;8.584;2022-09-02T08:14:53;18.02;59.16
66522;SHT31;53349;53.538;8.584;2022-09-02T08:17:20;18.07;59.01
66522;SHT31;53349;53.538;8.584;2022-09-02T08:19:45;18.05;58.81
66522;SHT31;53349;53.538;8.584;2022-09-02T08:22:10;18.12;58.53
66522;SHT31;53349;53.538;8.584;2022-09-02T08:24:36;18.26;57.74
66522;SHT31;53349;53.538;8.584;2022-09-02T08:27:01;18.29;57.61
66522;SHT31;53349;53.538;8.584;2022-09-02T08:29:27;18.32;57.76
66522;SHT31;53349;53.538;8.584;2022-09-02T08:31:53;18.38;56.96
66522;SHT31;53349;53.538;8.584;2022-09-02T08:34:18;18.41;57.09
66522;SHT31;53349;53.538;8.584;2022-09-02T08:36:44;18.51;56.98
66522;SHT31;53349;53.538;8.584;2022-09-02T08:39:10;18.50;56.96
66522;SHT31;53349;53.538;8.584;2022-09-02T08:41:46;18.54;56.88
66522;SHT31;53349;53.538;8.584;2022-09-02T08:44:20;18.61;56.57
66522;SHT31;53349;53.538;8.584;2022-09-02T08:46:48;18.68;56.40
66522;SHT31;53349;53.538;8.584;2022-09-02T08:49:45;18.84;55.95
66522;SHT31;53349;53.538;8.584;2022-09-02T08:52:24;19.04;55.38
66522;SHT31;53349;53.538;8.584;2022-09-02T08:54:54;19.18;54.70
66522;SHT31;53349;53.538;8.584;2022-09-02T08:57:20;19.39;54.65
66522;SHT31;53349;53.538;8.584;2022-09-02T08:59:49;19.73;53.66
66522;SHT31;53349;53.538;8.584;2022-09-02T09:02:33;20.07;53.07
66522;SHT31;53349;53.538;8.584;2022-09-02T09:05:42;20.47;51.91
66522;SHT31;53349;53.538;8.584;2022-09-02T09:11:02;21.10;49.54
66522;SHT31;53349;53.538;8.584;2022-09-02T09:13:36;21.41;49.00
66522;SHT31;53349;53.538;8.584;2022-09-02T09:21:12;22.33;46.43
66522;SHT31;53349;53.538;8.584;2022-09-02T09:23:39;22.57;45.50
66522;SHT31;53349;53.538;8.584;2022-09-02T09:26:21;22.84;44.35
66522;SHT31;53349;53.538;8.584;2022-09-02T09:28:48;23.19;44.21
66522;SHT31;53349;53.538;8.584;2022-09-02T09:31:20;23.38;42.68
66522;SHT31;53349;53.538;8.584;2022-09-02T09:36:44;23.85;42.12
66522;SHT31;53349;53.538;8.584;2022-09-02T09:39:30;23.99;41.90
66522;SHT31;53349;53.538;8.584;2022-09-02T09:41:58;24.13;41.83
66522;SHT31;53349;53.538;8.584;2022-09-02T09:44:45;24.24;41.25
66522;SHT31;53349;53.538;8.584;2022-09-02T09:47:17;24.23;41.59
66522;SHT31;53349;53.538;8.584;2022-09-02T09:49:45;24.37;41.60
66522;SHT31;53349;53.538;8.584;2022-09-02T09:52:24;24.38;41.33
66522;SHT31;53349;53.538;8.584;2022-09-02T09:55:20;24.68;40.56
66522;SHT31;53349;53.538;8.584;2022-09-02T09:57:48;24.68;40.35
66522;SHT31;53349;53.538;8.584;2022-09-02T10:02:49;24.44;40.41
66522;SHT31;53349;53.538;8.584;2022-09-02T10:07:42;24.41;40.63
66522;SHT31;53349;53.538;8.584;2022-09-02T10:10:22;24.79;40.13
66522;SHT31;53349;53.538;8.584;2022-09-02T10:12:51;24.96;39.79
66522;SHT31;53349;53.538;8.584;2022-09-02T10:23:10;24.74;39.54
66522;SHT31;53349;53.538;8.584;2022-09-02T10:26:11;24.71;39.54
66522;SHT31;53349;53.538;8.584;2022-09-02T10:37:07;24.54;39.51
66522;SHT31;53349;53.538;8.584;2022-09-02T10:42:28;24.51;39.27
66522;SHT31;53349;53.538;8.584;2022-09-02T10:45:11;24.56;39.50
66522;SHT31;53349;53.538;8.584;2022-09-02T10:47:39;24.50;39.54
66522;SHT31;53349;53.538;8.584;2022-09-02T10:58:28;24.63;39.52
66522;SHT31;53349;53.538;8.584;2022-09-02T11:00:58;24.69;39.61
66522;SHT31;53349;53.538;8.584;2022-09-02T11:06:12;24.65;39.13
66522;SHT31;53349;53.538;8.584;2022-09-02T11:11:24;24.81;38.80
66522;SHT31;53349;53.538;8.584;2022-09-02T11:16:21;24.74;39.02
66522;SHT31;53349;53.538;8.584;2022-09-02T11:21:51;24.63;37.72
66522;SHT31;53349;53.538;8.584;2022-09-02T11:24:23;24.46;38.46
66522;SHT31;53349;53.538;8.584;2022-09-02T11:26:59;24.10;39.04
66522;SHT31;53349;53.538;8.584;2022-09-02T11:32:18;23.72;39.84
66522;SHT31;53349;53.538;8.584;2022-09-02T11:34:48;23.68;39.72
66522;SHT31;53349;53.538;8.584;2022-09-02T11:37:32;23.76;39.50
66522;SHT31;53349;53.538;8.584;2022-09-02T11:40:02;23.82;39.34
66522;SHT31;53349;53.538;8.584;2022-09-02T11:53:45;23.82;38.94
66522;SHT31;53349;53.538;8.584;2022-09-02T11:56:20;23.65;39.27
66522;SHT31;53349;53.538;8.584;2022-09-02T11:58:52;23.66;39.32
66522;SHT31;53349;53.538;8.584;2022-09-02T12:10:04;23.86;39.02
66522;SHT31;53349;53.538;8.584;2022-09-02T12:20:06;23.87;38.90
66522;SHT31;53349;53.538;8.584;2022-09-02T12:22:37;23.85;38.62
66522;SHT31;53349;53.538;8.584;2022-09-02T12:25:32;23.87;38.87
66522;SHT31;53349;53.538;8.584;2022-09-02T12:28:09;23.96;38.91
66522;SHT31;53349;53.538;8.584;2022-09-02T12:36:02;23.69;38.84
66522;SHT31;53349;53.538;8.584;2022-09-02T12:38:41;23.65;39.13
66522;SHT31;53349;53.538;8.584;2022-09-02T12:41:13;23.68;38.03
66522;SHT31;53349;53.538;8.584;2022-09-02T12:51:57;23.62;39.28
66522;SHT31;53349;53.538;8.584;2022-09-02T12:57:04;23.61;39.26
66522;SHT31;53349;53.538;8.584;2022-09-02T12:59:32;23.59;38.46
66522;SHT31;53349;53.538;8.584;2022-09-02T13:05:09;23.61;38.35
66522;SHT31;53349;53.538;8.584;2022-09-02T13:15:56;23.45;37.74
66522;SHT31;53349;53.538;8.584;2022-09-02T13:18:59;23.38;38.03
66522;SHT31;53349;53.538;8.584;2022-09-02T13:21:31;23.35;38.22
66522;SHT31;53349;53.538;8.584;2022-09-02T13:24:14;23.28;38.50
66522;SHT31;53349;53.538;8.584;2022-09-02T13:27:07;23.18;39.09
66522;SHT31;53349;53.538;8.584;2022-09-02T13:32:43;23.15;39.45
66522;SHT31;53349;53.538;8.584;2022-09-02T13:35:19;23.17;39.54
66522;SHT31;53349;53.538;8.584;2022-09-02T13:37:56;23.15;39.63
66522;SHT31;53349;53.538;8.584;2022-09-02T13:40:42;23.08;39.72
66522;SHT31;53349;53.538;8.584;2022-09-02T13:45:36;23.00;39.83
66522;SHT31;53349;53.538;8.584;2022-09-02T13:48:07;22.93;39.96
66522;SHT31;53349;53.538;8.584;2022-09-02T13:50:33;22.93;39.96
66522;SHT31;53349;53.538;8.584;2022-09-02T13:53:00;22.90;40.39
66522;SHT31;53349;53.538;8.584;2022-09-02T13:55:28;22.98;40.25
66522;SHT31;53349;53.538;8.584;2022-09-02T13:58:07;22.94;39.16
66522;SHT31;53349;53.538;8.584;2022-09-02T14:00:43;22.90;39.48
66522;SHT31;53349;53.538;8.584;2022-09-02T14:03:12;22.93;39.44
66522;SHT31;53349;53.538;8.584;2022-09-02T14:05:40;22.96;39.50
66522;SHT31;53349;53.538;8.584;2022-09-02T14:08:13;22.93;39.18
66522;SHT31;53349;53.538;8.584;2022-09-02T14:10:39;22.94;39.19
66522;SHT31;53349;53.538;8.584;2022-09-02T14:13:07;22.94;38.71
66522;SHT31;53349;53.538;8.584;2022-09-02T14:15:34;23.01;38.95
66522;SHT31;53349;53.538;8.584;2022-09-02T14:18:20;23.03;38.43
66522;SHT31;53349;53.538;8.584;2022-09-02T14:23:20;23.06;38.71
66522;SHT31;53349;53.538;8.584;2022-09-02T14:25:55;23.08;38.94
66522;SHT31;53349;53.538;8.584;2022-09-02T14:28:26;23.08;38.47
66522;SHT31;53349;53.538;8.584;2022-09-02T14:31:01;23.12;38.43
66522;SHT31;53349;53.538;8.584;2022-09-02T14:33:42;23.12;38.46
66522;SHT31;53349;53.538;8.584;2022-09-02T14:36:30;23.18;38.62
66522;SHT31;53349;53.538;8.584;2022-09-02T14:39:10;23.27;38.53
66522;SHT31;53349;53.538;8.584;2022-09-02T14:41:42;23.22;38.00
66522;SHT31;53349;53.538;8.584;2022-09-02T14:44:10;23.17;38.42
66522;SHT31;53349;53.538;8.584;2022-09-02T14:46:55;23.14;38.79
66522;SHT31;53349;53.538;8.584;2022-09-02T14:52:23;23.14;38.68
66522;SHT31;53349;53.538;8.584;2022-09-02T14:54:54;23.11;38.71
66522;SHT31;53349;53.538;8.584;2022-09-02T14:57:25;23.14;38.88
66522;SHT31;53349;53.538;8.584;2022-09-02T15:00:14;23.11;37.49
66522;SHT31;53349;53.538;8.584;2022-09-02T15:02:43;23.18;36.92
66522;SHT31;53349;53.538;8.584;2022-09-02T15:05:12;23.19;36.87
66522;SHT31;53349;53.538;8.584;2022-09-02T15:07:40;23.17;36.77
66522;SHT31;53349;53.538;8.584;2022-09-02T15:10:06;23.17;37.94
66522;SHT31;53349;53.538;8.584;2022-09-02T15:12:38;23.15;38.07
66522;SHT31;53349;53.538;8.584;2022-09-02T15:15:05;23.14;37.53
66522;SHT31;53349;53.538;8.584;2022-09-02T15:17:30;23.14;37.70
66522;SHT31;53349;53.538;8.584;2022-09-02T15:19:56;23.08;37.31
66522;SHT31;53349;53.538;8.584;2022-09-02T15:22:21;23.08;37.44
66522;SHT31;53349;53.538;8.584;2022-09-02T15:24:46;23.07;37.35
66522;SHT31;53349;53.538;8.584;2022-09-02T15:27:13;23.10;37.40
66522;SHT31;53349;53.538;8.584;2022-09-02T15:29:43;23.10;37.71
66522;SHT31;53349;53.538;8.584;2022-09-02T15:32:08;23.12;37.77
66522;SHT31;53349;53.538;8.584;2022-09-02T15:34:34;23.12;37.86
66522;SHT31;53349;53.538;8.584;2022-09-02T15:37:00;23.12;38.05
66522;SHT31;53349;53.538;8.584;2022-09-02T15:39:26;23.08;37.70
66522;SHT31;53349;53.538;8.584;2022-09-02T15:41:52;23.08;37.90
66522;SHT31;53349;53.538;8.584;2022-09-02T15:44:23;23.08;37.83
66522;SHT31;53349;53.538;8.584;2022-09-02T15:46:50;23.10;38.00
66522;SHT31;53349;53.538;8.584;2022-09-02T15:49:16;23.11;37.68
66522;SHT31;53349;53.538;8.584;2022-09-02T15:51:43;23.12;37.31
66522;SHT31;53349;53.538;8.584;2022-09-02T15:54:13;23.10;37.24
66522;SHT31;53349;53.538;8.584;2022-09-02T15:56:40;23.11;37.45
66522;SHT31;53349;53.538;8.584;2022-09-02T15:59:10;23.04;37.48
66522;SHT31;53349;53.538;8.584;2022-09-02T16:01:38;23.04;37.86
66522;SHT31;53349;53.538;8.584;2022-09-02T16:04:06;23.03;38.08
66522;SHT31;53349;53.538;8.584;2022-09-02T16:06:33;23.01;38.25
66522;SHT31;53349;53.538;8.584;2022-09-02T16:09:01;23.04;38.48
66522;SHT31;53349;53.538;8.584;2022-09-02T16:11:26;22.97;38.50
66522;SHT31;53349;53.538;8.584;2022-09-02T16:13:52;22.90;38.25
66522;SHT31;53349;53.538;8.584;2022-09-02T16:16:18;22.84;38.22
66522;SHT31;53349;53.538;8.584;2022-09-02T16:18:48;22.80;38.34
66522;SHT31;53349;53.538;8.584;2022-09-02T16:21:17;22.71;38.21
66522;SHT31;53349;53.538;8.584;2022-09-02T16:23:43;22.70;38.44
66522;SHT31;53349;53.538;8.584;2022-09-02T16:26:25;22.64;38.65
66522;SHT31;53349;53.538;8.584;2022-09-02T16:28:56;22.60;38.78
66522;SHT31;53349;53.538;8.584;2022-09-02T16:31:23;22.57;38.82
66522;SHT31;53349;53.538;8.584;2022-09-02T16:34:01;22.53;38.98
66522;SHT31;53349;53.538;8.584;2022-09-02T16:36:28;22.56;39.22
66522;SHT31;53349;53.538;8.584;2022-09-02T16:38:54;22.56;39.33
66522;SHT31;53349;53.538;8.584;2022-09-02T16:41:26;22.55;39.09
66522;SHT31;53349;53.538;8.584;2022-09-02T16:43:53;22.57;38.96
66522;SHT31;53349;53.538;8.584;2022-09-02T16:46:18;22.50;38.90
66522;SHT31;53349;53.538;8.584;2022-09-02T16:48:44;22.52;38.76
66522;SHT31;53349;53.538;8.584;2022-09-02T16:51:09;22.50;38.70
66522;SHT31;53349;53.538;8.584;2022-09-02T16:53:35;22.45;38.78
66522;SHT31;53349;53.538;8.584;2022-09-02T16:56:01;22.46;38.89
66522;SHT31;53349;53.538;8.584;2022-09-02T16:58:30;22.43;38.82
66522;SHT31;53349;53.538;8.584;2022-09-02T17:00:56;22.39;39.10
66522;SHT31;53349;53.538;8.584;2022-09-02T17:03:22;22.36;40.02
66522;SHT31;53349;53.538;8.584;2022-09-02T17:05:48;22.35;40.68
66522;SHT31;53349;53.538;8.584;2022-09-02T17:08:14;22.29;41.19
66522;SHT31;53349;53.538;8.584;2022-09-02T17:10:41;22.29;41.98
66522;SHT31;53349;53.538;8.584;2022-09-02T17:13:06;22.18;42.58
66522;SHT31;53349;53.538;8.584;2022-09-02T17:15:32;22.10;42.46
66522;SHT31;53349;53.538;8.584;2022-09-02T17:17:57;22.09;42.56
66522;SHT31;53349;53.538;8.584;2022-09-02T17:20:23;22.06;42.28
66522;SHT31;53349;53.538;8.584;2022-09-02T17:22:50;22.01;42.08
66522;SHT31;53349;53.538;8.584;2022-09-02T17:25:16;21.95;41.87
66522;SHT31;53349;53.538;8.584;2022-09-02T17:27:42;21.91;41.98
66522;SHT31;53349;53.538;8.584;2022-09-02T17:30:08;21.88;42.01
66522;SHT31;53349;53.538;8.584;2022-09-02T17:32:36;21.81;42.18
66522;SHT31;53349;53.538;8.584;2022-09-02T17:35:01;21.78;42.31
66522;SHT31;53349;53.538;8.584;2022-09-02T17:37:27;21.71;42.70
66522;SHT31;53349;53.538;8.584;2022-09-02T17:39:53;21.64;43.00
66522;SHT31;53349;53.538;8.584;2022-09-02T17:42:18;21.58;43.42
66522;SHT31;53349;53.538;8.584;2022-09-02T17:44:46;21.53;43.87